createdAt,value
2023-01-17T00:02:19.586Z,16.30
2023-01-17T00:09:00.125Z,14.50
2023-01-17T00:12:02.518Z,13.27
2023-01-17T00:15:05.524Z,24.50
2023-01-17T00:21:27.788Z,19.70
2023-01-17T00:24:48.558Z,30.27
2023-01-17T00:27:50.409Z,16.42
2023-01-17T00:30:52.700Z,12.52
2023-01-17T00:33:54.503Z,17.40
2023-01-17T00:36:56.345Z,20.40
2023-01-17T00:39:58.228Z,16.50
2023-01-17T00:43:18.653Z,14.05
2023-01-17T00:46:39.415Z,47.83
2023-01-17T00:50:00.076Z,28.08
2023-01-17T00:53:23.975Z,15.13
2023-01-17T00:56:44.381Z,16.48
2023-01-17T01:00:04.821Z,14.77
2023-01-17T01:03:29.541Z,9.95
2023-01-17T01:06:50.339Z,12.23
2023-01-17T01:10:10.681Z,11.90
2023-01-17T01:13:31.021Z,17.55
2023-01-17T01:16:51.687Z,13.00
2023-01-17T01:20:12.298Z,16.42
2023-01-17T01:23:33.024Z,19.90
2023-01-17T01:26:53.169Z,36.05
2023-01-17T01:30:13.513Z,17.33
2023-01-17T01:33:21.500Z,17.30
2023-01-17T01:36:23.477Z,13.35
2023-01-17T01:39:25.357Z,13.43
2023-01-17T01:42:27.309Z,9.88
2023-01-17T01:45:32.260Z,12.20
2023-01-17T01:48:38.428Z,10.75
2023-01-17T01:51:43.360Z,9.85
2023-01-17T01:54:53.409Z,10.10
2023-01-17T01:57:58.779Z,9.63
2023-01-17T02:01:00.953Z,9.18
2023-01-17T02:04:04.198Z,12.10
2023-01-17T02:07:15.429Z,10.30
2023-01-17T02:10:17.470Z,11.00
2023-01-17T02:13:20.881Z,10.93
2023-01-17T02:16:25.705Z,10.90
2023-01-17T02:19:39.902Z,11.07
2023-01-17T02:23:09.520Z,9.80
2023-01-17T02:26:20.523Z,9.95
2023-01-17T02:29:32.556Z,10.30
2023-01-17T02:32:54.212Z,10.60
2023-01-17T02:36:07.856Z,10.05
2023-01-17T02:39:30.119Z,10.57
2023-01-17T02:42:40.441Z,9.95
2023-01-17T02:45:42.938Z,10.63
2023-01-17T02:48:46.389Z,10.43
2023-01-17T02:52:18.579Z,10.23
2023-01-17T02:55:42.270Z,10.38
2023-01-17T02:59:21.128Z,10.48
2023-01-17T03:02:31.476Z,10.50
2023-01-17T03:06:12.619Z,10.57
2023-01-17T03:09:17.275Z,11.18
2023-01-17T03:12:23.122Z,13.82
2023-01-17T03:15:25.059Z,18.95
2023-01-17T03:18:27.318Z,16.65
2023-01-17T03:21:29.428Z,29.35
2023-01-17T03:24:31.315Z,27.33
2023-01-17T03:27:33.325Z,26.15
2023-01-17T03:30:35.336Z,21.92
2023-01-17T03:33:37.238Z,17.92
2023-01-17T03:36:39.182Z,16.40
2023-01-17T03:39:41.161Z,15.30
2023-01-17T03:42:43.300Z,12.43
2023-01-17T03:45:45.333Z,9.93
2023-01-17T03:48:47.543Z,9.40
2023-01-17T03:51:49.457Z,10.80
2023-01-17T03:54:51.509Z,12.00
2023-01-17T03:57:53.369Z,12.63
2023-01-17T04:00:55.329Z,17.60
2023-01-17T04:03:57.258Z,16.17
2023-01-17T04:06:59.198Z,12.38
2023-01-17T04:10:01.090Z,10.63
2023-01-17T04:13:02.968Z,10.30
2023-01-17T04:16:06.223Z,10.50
2023-01-17T04:19:12.558Z,11.73
2023-01-17T04:22:14.537Z,10.70
2023-01-17T04:25:16.437Z,10.48
2023-01-17T04:28:18.274Z,10.45
2023-01-17T04:31:20.278Z,9.77
2023-01-17T04:34:22.325Z,9.90
2023-01-17T04:37:24.290Z,13.60
2023-01-17T04:40:26.630Z,10.15
2023-01-17T04:43:28.506Z,9.52
2023-01-17T04:46:30.652Z,9.73
2023-01-17T04:49:32.557Z,10.00
2023-01-17T04:52:34.483Z,9.77
2023-01-17T04:55:36.390Z,10.55
2023-01-17T04:58:38.352Z,11.07
2023-01-17T05:01:40.347Z,13.55
2023-01-17T05:04:42.300Z,14.53
2023-01-17T05:07:44.151Z,13.43
2023-01-17T05:10:47.174Z,12.40
2023-01-17T05:16:58.736Z,10.70
2023-01-17T05:20:00.602Z,10.93
2023-01-17T05:23:02.598Z,10.38
2023-01-17T05:26:04.531Z,10.98
2023-01-17T05:29:06.744Z,9.80
2023-01-17T05:32:09.006Z,10.73
2023-01-17T05:35:10.917Z,9.38
2023-01-17T05:38:12.848Z,9.82
2023-01-17T05:41:14.796Z,10.00
2023-01-17T05:44:16.685Z,9.88
2023-01-17T05:47:18.539Z,10.35
2023-01-17T05:50:26.270Z,9.13
2023-01-17T05:53:28.442Z,9.93
2023-01-17T05:56:30.377Z,10.18
2023-01-17T05:59:37.437Z,9.30
2023-01-17T06:02:40.295Z,9.13
2023-01-17T06:05:43.105Z,9.43
2023-01-17T06:08:45.026Z,10.00
2023-01-17T06:11:46.966Z,9.57
2023-01-17T06:14:48.940Z,10.02
2023-01-17T06:17:50.832Z,10.10
2023-01-17T06:20:54.791Z,10.15
2023-01-17T06:23:56.707Z,9.63
2023-01-17T06:26:58.667Z,10.15
2023-01-17T06:30:00.582Z,10.02
2023-01-17T06:33:02.647Z,9.75
2023-01-17T06:36:05.007Z,10.07
2023-01-17T06:39:07.252Z,10.88
2023-01-17T06:42:09.169Z,11.90
2023-01-17T06:45:11.615Z,10.85
2023-01-17T06:48:13.716Z,12.15
2023-01-17T06:51:16.125Z,11.67
2023-01-17T06:54:18.985Z,11.20
2023-01-17T06:57:20.908Z,10.93
2023-01-17T07:00:23.137Z,12.55
2023-01-17T07:03:27.356Z,11.80
2023-01-17T07:06:29.365Z,10.05
2023-01-17T07:09:32.226Z,12.65
2023-01-17T07:12:34.143Z,11.27
2023-01-17T07:15:36.093Z,12.77
2023-01-17T07:18:38.071Z,13.02
2023-01-17T07:21:40.512Z,13.32
2023-01-17T07:24:42.438Z,12.77
2023-01-17T07:27:45.732Z,11.90
2023-01-17T07:30:48.071Z,11.48
2023-01-17T07:33:49.970Z,11.75
2023-01-17T07:36:51.996Z,11.30
2023-01-17T07:39:54.636Z,11.63
2023-01-17T07:43:02.495Z,11.52
2023-01-17T07:46:08.075Z,10.13
2023-01-17T07:49:10.073Z,9.32
2023-01-17T07:52:12.095Z,10.40
2023-01-17T07:55:14.126Z,11.03
2023-01-17T07:58:16.116Z,10.45
2023-01-17T08:01:18.167Z,10.57
2023-01-17T08:04:20.191Z,10.63
2023-01-17T08:07:22.091Z,10.88
2023-01-17T08:10:24.048Z,10.57
2023-01-17T08:13:25.892Z,11.60
2023-01-17T08:16:28.866Z,12.18
2023-01-17T08:22:32.606Z,10.98
2023-01-17T08:25:35.417Z,11.13
2023-01-17T08:28:37.397Z,11.85
2023-01-17T08:31:39.331Z,11.88
2023-01-17T08:34:41.392Z,11.68
2023-01-17T08:37:43.370Z,12.05
2023-01-17T08:40:45.216Z,11.32
2023-01-17T08:43:48.272Z,12.77
2023-01-17T08:49:52.731Z,11.95
2023-01-17T08:53:03.474Z,12.65
2023-01-17T08:56:05.881Z,13.10
2023-01-17T08:59:07.759Z,12.63
2023-01-17T09:02:15.033Z,13.45
2023-01-17T09:05:16.993Z,13.18
2023-01-17T09:08:18.863Z,13.52
2023-01-17T09:11:20.810Z,13.63
2023-01-17T09:14:22.719Z,14.23
2023-01-17T09:17:24.780Z,14.70
2023-01-17T09:20:30.173Z,15.47
2023-01-17T09:23:32.137Z,15.85
2023-01-17T09:26:35.535Z,15.75
2023-01-17T09:29:37.363Z,15.67
2023-01-17T09:32:39.294Z,14.98
2023-01-17T09:35:41.369Z,16.37
2023-01-17T09:38:43.687Z,17.23
2023-01-17T09:41:51.286Z,17.95
2023-01-17T09:44:54.234Z,18.00
2023-01-17T09:51:03.290Z,17.17
2023-01-17T09:54:05.730Z,17.58
2023-01-17T09:57:19.088Z,18.98
2023-01-17T10:00:35.796Z,18.60
2023-01-17T10:03:37.776Z,19.10
2023-01-17T10:07:11.398Z,20.13
2023-01-17T10:10:36.227Z,17.73
2023-01-17T10:13:43.220Z,18.00
2023-01-17T10:17:03.854Z,18.15
2023-01-17T10:20:15.285Z,19.48
2023-01-17T10:23:38.303Z,20.25
2023-01-17T10:26:40.268Z,20.92
2023-01-17T10:29:44.745Z,19.80
2023-01-17T10:32:49.526Z,22.35
2023-01-17T10:36:07.826Z,23.08
2023-01-17T10:39:24.868Z,21.75
2023-01-17T10:42:35.872Z,21.23
2023-01-17T10:45:45.068Z,20.35
2023-01-17T10:48:50.926Z,20.23
2023-01-17T10:52:00.429Z,21.70
2023-01-17T10:55:23.857Z,21.02
2023-01-17T10:58:25.907Z,20.35
2023-01-17T11:01:28.025Z,21.47
2023-01-17T11:04:36.711Z,21.40
2023-01-17T11:07:40.140Z,22.02
2023-01-17T11:11:04.424Z,23.45
2023-01-17T11:14:17.495Z,21.55
2023-01-17T11:17:20.050Z,23.30
2023-01-17T11:20:39.853Z,22.25
2023-01-17T11:23:45.603Z,21.88
2023-01-17T11:26:49.609Z,23.58
2023-01-17T11:30:18.111Z,22.27
2023-01-17T11:33:35.432Z,21.40
2023-01-17T11:36:37.388Z,22.35
2023-01-17T11:39:39.389Z,23.95
2023-01-17T11:42:41.327Z,24.33
2023-01-17T11:45:43.289Z,23.67
2023-01-17T11:49:01.471Z,18.33
2023-01-17T11:52:39.152Z,24.38
2023-01-17T11:56:12.055Z,25.83
2023-01-17T11:59:26.309Z,21.35
2023-01-17T12:02:49.771Z,26.60
2023-01-17T12:09:13.797Z,24.88
2023-01-17T12:13:19.668Z,25.17
2023-01-17T12:16:33.504Z,22.73
2023-01-17T12:19:42.391Z,26.10
2023-01-17T12:23:06.480Z,24.67
2023-01-17T12:26:35.212Z,25.77
2023-01-17T12:29:40.095Z,24.70
2023-01-17T12:33:03.729Z,25.58
2023-01-17T12:36:17.781Z,25.30
2023-01-17T12:39:26.204Z,23.67
2023-01-17T12:42:33.235Z,24.58
2023-01-17T12:45:42.779Z,25.20
2023-01-17T12:48:45.245Z,24.52
2023-01-17T12:51:53.203Z,26.08
2023-01-17T12:55:05.728Z,25.55
2023-01-17T12:58:24.918Z,23.02
2023-01-17T13:01:32.260Z,23.63
2023-01-17T13:04:58.047Z,26.17
2023-01-17T13:08:09.481Z,24.75
2023-01-17T13:11:27.953Z,25.05
2023-01-17T13:14:30.078Z,23.98
2023-01-17T13:17:45.010Z,26.40
2023-01-17T13:20:53.818Z,24.70
2023-01-17T13:24:06.021Z,24.85
2023-01-17T13:27:25.418Z,25.93
2023-01-17T13:30:57.410Z,29.88
2023-01-17T13:34:08.350Z,28.15
2023-01-17T13:37:10.268Z,35.47
2023-01-17T13:40:53.605Z,29.30
2023-01-17T13:44:14.297Z,24.88
2023-01-17T13:47:19.003Z,23.98
2023-01-17T13:50:42.138Z,24.40
2023-01-17T13:53:43.983Z,24.13
2023-01-17T13:56:45.880Z,24.15
2023-01-17T13:59:47.871Z,24.55
2023-01-17T14:02:51.822Z,29.25
2023-01-17T14:05:57.174Z,31.05
2023-01-17T14:09:08.086Z,25.05
2023-01-17T14:12:14.177Z,29.02
2023-01-17T14:15:27.177Z,30.05
2023-01-17T14:18:32.136Z,28.45
2023-01-17T14:21:35.658Z,28.20
2023-01-17T14:25:20.179Z,25.42
2023-01-17T14:28:23.223Z,25.85
2023-01-17T14:34:28.752Z,24.13
2023-01-17T14:37:38.761Z,26.90
2023-01-17T14:40:40.722Z,27.35
2023-01-17T14:43:43.624Z,25.90
2023-01-17T14:46:48.889Z,27.67
2023-01-17T14:50:12.079Z,26.75
2023-01-17T14:53:13.947Z,26.40
2023-01-17T15:21:59.780Z,27.92
2023-01-17T15:25:02.687Z,26.88
2023-01-17T15:31:47.490Z,25.45
2023-01-17T15:34:51.223Z,27.90
2023-01-17T15:37:54.939Z,24.70
2023-01-17T15:41:09.069Z,24.58
2023-01-17T15:44:42.704Z,26.00
2023-01-17T15:47:49.224Z,25.58
2023-01-17T15:50:58.974Z,27.42
2023-01-17T15:54:20.866Z,25.80
2023-01-17T15:57:37.196Z,24.77
2023-01-17T16:00:39.662Z,27.10
2023-01-17T16:03:54.107Z,23.48
2023-01-17T16:07:09.365Z,25.20
2023-01-17T16:10:23.111Z,24.17
2023-01-17T16:13:29.786Z,22.92
2023-01-17T16:16:31.893Z,25.02
2023-01-17T16:19:34.908Z,25.67
2023-01-17T16:25:39.150Z,22.55
2023-01-17T16:28:41.065Z,23.17
2023-01-17T16:31:42.984Z,25.15
2023-01-17T16:34:44.856Z,25.60
2023-01-17T16:37:55.512Z,26.30
2023-01-17T16:40:57.485Z,24.30
2023-01-17T16:44:05.013Z,22.73
2023-01-17T16:47:06.946Z,23.60
2023-01-17T16:50:12.298Z,22.42
2023-01-17T16:53:15.300Z,23.17
2023-01-17T16:59:20.062Z,21.98
2023-01-17T17:02:23.228Z,21.67
2023-01-17T17:05:26.648Z,20.95
2023-01-17T17:08:29.599Z,21.35
2023-01-17T17:11:31.743Z,20.83
2023-01-17T17:14:33.729Z,21.10
2023-01-17T17:17:36.743Z,21.33
2023-01-17T17:23:40.371Z,20.63
2023-01-17T17:26:42.409Z,20.55
2023-01-17T17:29:44.375Z,20.33
2023-01-17T17:32:47.727Z,19.92
2023-01-17T17:35:49.673Z,20.35
2023-01-17T17:38:54.758Z,19.85
2023-01-17T17:41:56.666Z,19.85
2023-01-17T17:44:58.591Z,20.38
2023-01-17T17:48:00.525Z,19.83
2023-01-17T17:51:02.969Z,22.48
2023-01-17T17:54:07.751Z,22.40
2023-01-17T17:57:09.945Z,96.32
2023-01-17T18:00:12.381Z,49.63
2023-01-17T18:03:14.725Z,83.80
2023-01-17T18:06:17.521Z,30.10
2023-01-17T18:09:19.519Z,28.30
2023-01-17T18:12:21.463Z,27.33
2023-01-17T18:15:24.275Z,43.35
2023-01-17T18:18:26.371Z,29.88
2023-01-17T18:21:34.466Z,36.27
2023-01-17T18:24:36.302Z,22.42
2023-01-17T18:27:39.840Z,33.20
2023-01-17T18:30:41.680Z,25.38
2023-01-17T18:33:43.657Z,24.75
2023-01-17T18:36:45.642Z,44.05
2023-01-17T18:39:47.598Z,36.35
2023-01-17T18:42:49.687Z,25.05
2023-01-17T18:45:54.539Z,29.93
2023-01-17T18:48:57.296Z,29.17
2023-01-17T18:52:00.147Z,22.63
2023-01-17T18:55:02.182Z,29.77
2023-01-17T18:58:04.118Z,27.42
2023-01-17T19:01:10.325Z,22.70
2023-01-17T19:04:13.901Z,25.50
2023-01-17T19:07:15.990Z,25.75
2023-01-17T19:10:19.885Z,25.57
2023-01-17T19:13:21.823Z,26.85
2023-01-17T19:16:30.061Z,30.15
2023-01-17T19:19:31.926Z,26.25
2023-01-17T19:22:33.805Z,25.08
2023-01-17T19:25:36.420Z,24.98
2023-01-17T19:28:40.682Z,25.20
2023-01-17T19:31:43.628Z,35.58
2023-01-17T19:34:45.648Z,58.33
2023-01-17T19:37:49.452Z,35.33
2023-01-17T19:40:51.859Z,43.35
2023-01-17T19:43:59.818Z,24.00
2023-01-17T19:47:01.768Z,36.83
2023-01-17T19:50:08.357Z,35.25
2023-01-17T19:53:10.263Z,27.50
2023-01-17T19:56:20.869Z,25.25
2023-01-17T19:59:22.811Z,35.20
2023-01-17T20:02:24.914Z,29.45
2023-01-17T20:05:27.044Z,29.67
2023-01-17T20:08:29.002Z,32.73
2023-01-17T20:11:30.960Z,26.70
2023-01-17T20:14:32.833Z,54.60
2023-01-17T20:17:34.770Z,50.08
2023-01-17T20:20:41.362Z,55.33
2023-01-17T20:23:48.723Z,39.35
2023-01-17T20:26:51.418Z,55.25
2023-01-17T20:29:53.431Z,33.38
2023-01-17T20:32:56.676Z,48.83
2023-01-17T20:36:10.756Z,31.58
2023-01-17T20:39:14.766Z,26.15
2023-01-17T20:42:16.665Z,32.28
2023-01-17T20:45:18.598Z,32.80
2023-01-17T20:48:22.434Z,45.42
2023-01-17T20:51:26.503Z,31.08
2023-01-17T20:54:28.480Z,28.10
2023-01-17T20:57:31.409Z,32.38
2023-01-17T21:03:40.288Z,22.63
2023-01-17T21:06:43.697Z,24.98
2023-01-17T21:09:45.601Z,25.08
2023-01-17T21:12:47.501Z,25.30
2023-01-17T21:15:49.911Z,23.25
2023-01-17T21:18:52.321Z,19.98
2023-01-17T21:21:56.284Z,25.15
2023-01-17T21:24:58.887Z,20.13
2023-01-17T21:28:00.824Z,20.85
2023-01-17T21:31:20.519Z,23.02
2023-01-17T21:34:25.288Z,21.27
2023-01-17T21:37:27.417Z,24.88
2023-01-17T21:40:29.369Z,21.30
2023-01-17T21:43:31.389Z,22.60
2023-01-17T21:46:36.963Z,21.38
2023-01-17T21:49:38.857Z,25.67
2023-01-17T21:52:40.835Z,23.35
2023-01-17T21:56:00.870Z,22.08
2023-01-17T21:59:02.800Z,23.92
2023-01-17T22:02:04.802Z,20.02
2023-01-17T22:05:08.052Z,20.10
2023-01-17T22:08:12.782Z,19.77
2023-01-17T22:11:17.549Z,20.92
2023-01-17T22:14:19.630Z,24.30
2023-01-17T22:17:21.600Z,23.40
2023-01-17T22:20:23.971Z,25.05
2023-01-17T22:23:25.923Z,20.85
2023-01-17T22:26:31.555Z,24.90
2023-01-17T22:29:34.065Z,29.63
2023-01-17T22:32:35.931Z,31.38
2023-01-17T22:35:37.821Z,29.23
2023-01-17T22:38:40.812Z,27.95
2023-01-17T22:44:44.601Z,24.42
2023-01-17T22:47:46.541Z,21.08
2023-01-17T22:50:48.445Z,21.52
2023-01-17T22:53:52.664Z,19.38
2023-01-17T22:56:54.631Z,19.52
2023-01-17T22:59:56.572Z,20.70
2023-01-17T23:02:59.022Z,19.48
2023-01-17T23:06:13.842Z,20.83
2023-01-17T23:09:17.343Z,19.55
2023-01-17T23:12:19.288Z,21.25
2023-01-17T23:15:39.547Z,18.58
2023-01-17T23:19:00.315Z,19.52
2023-01-17T23:22:16.448Z,18.98
2023-01-17T23:25:18.416Z,19.35
2023-01-17T23:28:20.990Z,19.25
2023-01-17T23:31:23.518Z,19.65
2023-01-17T23:34:25.522Z,18.20
2023-01-17T23:37:49.354Z,18.23
2023-01-17T23:41:20.345Z,19.00
2023-01-17T23:44:23.563Z,19.13
2023-01-17T23:47:25.535Z,19.60
2023-01-17T23:50:27.714Z,18.70
2023-01-17T23:53:29.667Z,19.23
2023-01-17T23:56:31.661Z,18.98
2023-01-17T23:59:33.761Z,19.40
